createdAt,value
2022-11-05T00:00:41.648Z,88.03
2022-11-05T00:03:29.704Z,88.38
2022-11-05T00:06:16.241Z,88.43
2022-11-05T00:09:03.441Z,88.66
2022-11-05T00:11:50.173Z,88.78
2022-11-05T00:14:36.862Z,88.95
2022-11-05T00:17:04.961Z,89.43
2022-11-05T00:19:33.162Z,89.38
2022-11-05T00:22:19.681Z,89.50
2022-11-05T00:25:06.658Z,89.33
2022-11-05T00:27:34.887Z,89.42
2022-11-05T00:30:07.702Z,89.81
2022-11-05T00:32:37.945Z,90.00
2022-11-05T00:35:08.942Z,90.29
2022-11-05T00:37:37.471Z,90.37
2022-11-05T00:40:06.607Z,90.04
2022-11-05T00:42:53.673Z,90.29
2022-11-05T00:45:22.113Z,90.39
2022-11-05T00:48:08.696Z,90.58
2022-11-05T00:50:36.864Z,90.69
2022-11-05T00:53:05.114Z,90.88
2022-11-05T00:55:41.107Z,90.63
2022-11-05T00:58:12.127Z,90.93
2022-11-05T01:00:45.849Z,90.99
2022-11-05T01:03:15.443Z,91.24
2022-11-05T01:05:47.207Z,91.36
2022-11-05T01:08:17.752Z,91.48
2022-11-05T01:10:49.013Z,91.34
2022-11-05T01:13:20.988Z,91.54
2022-11-05T01:15:51.015Z,91.68
2022-11-05T01:18:21.208Z,91.35
2022-11-05T01:20:50.595Z,91.81
2022-11-05T01:23:19.311Z,91.82
2022-11-05T01:25:47.813Z,92.07
2022-11-05T01:28:16.223Z,91.87
2022-11-05T01:30:44.397Z,91.97
2022-11-05T01:33:12.653Z,92.31
2022-11-05T01:35:41.114Z,91.93
2022-11-05T01:38:09.365Z,92.22
2022-11-05T01:40:42.695Z,92.43
2022-11-05T01:43:19.886Z,92.37
2022-11-05T01:45:51.698Z,92.40
2022-11-05T01:48:49.262Z,92.69
2022-11-05T01:51:22.045Z,92.48
2022-11-05T01:54:00.184Z,92.65
2022-11-05T01:56:39.572Z,92.50
2022-11-05T01:59:16.545Z,92.62
2022-11-05T02:01:45.474Z,92.66
2022-11-05T02:04:23.389Z,92.62
2022-11-05T02:06:53.255Z,92.92
2022-11-05T02:09:31.013Z,92.71
2022-11-05T02:11:59.337Z,92.68
2022-11-05T02:14:27.663Z,92.81
2022-11-05T02:17:06.021Z,92.72
2022-11-05T02:19:43.135Z,92.42
2022-11-05T02:22:26.800Z,92.78
2022-11-05T02:25:06.952Z,92.80
2022-11-05T02:27:44.093Z,92.67
2022-11-05T02:30:30.835Z,92.71
2022-11-05T02:33:24.494Z,92.62
2022-11-05T02:36:13.253Z,92.49
2022-11-05T02:39:05.953Z,92.99
2022-11-05T02:41:45.218Z,92.71
2022-11-05T02:44:30.473Z,93.09
2022-11-05T02:47:18.714Z,93.10
2022-11-05T02:49:56.378Z,92.75
2022-11-05T02:52:37.500Z,92.41
2022-11-05T02:55:27.323Z,92.95
2022-11-05T02:57:55.548Z,93.04
2022-11-05T03:00:39.337Z,92.81
2022-11-05T03:03:20.017Z,92.78
2022-11-05T03:05:59.189Z,93.02
2022-11-05T03:09:01.921Z,93.25
2022-11-05T03:11:35.473Z,93.24
2022-11-05T03:14:21.892Z,93.39
2022-11-05T03:17:00.294Z,93.40
2022-11-05T03:19:54.377Z,93.27
2022-11-05T03:22:27.362Z,93.32
2022-11-05T03:25:00.624Z,93.38
2022-11-05T03:27:35.640Z,93.47
2022-11-05T03:30:10.711Z,93.57
2022-11-05T03:32:44.327Z,93.69
2022-11-05T03:35:14.767Z,93.54
2022-11-05T03:37:46.940Z,94.24
2022-11-05T03:40:18.419Z,94.19
2022-11-05T03:42:52.848Z,93.89
2022-11-05T03:45:26.863Z,93.74
2022-11-05T03:47:59.019Z,93.94
2022-11-05T03:50:42.363Z,93.67
2022-11-05T03:53:19.022Z,93.72
2022-11-05T03:56:00.987Z,93.86
2022-11-05T03:58:31.634Z,94.03
2022-11-05T04:01:05.464Z,93.93
2022-11-05T04:03:36.615Z,94.17
2022-11-05T04:06:25.119Z,94.03
2022-11-05T04:09:12.008Z,94.30
2022-11-05T04:11:58.752Z,94.31
2022-11-05T04:14:27.009Z,94.40
2022-11-05T04:17:06.811Z,94.41
2022-11-05T04:20:04.236Z,94.40
2022-11-05T04:22:53.990Z,94.33
2022-11-05T04:25:23.019Z,94.32
2022-11-05T04:27:52.613Z,94.09
2022-11-05T04:30:21.915Z,94.56
2022-11-05T04:33:01.901Z,94.57
2022-11-05T04:35:37.323Z,94.36
2022-11-05T04:38:08.686Z,94.47
2022-11-05T04:40:37.964Z,94.32
2022-11-05T04:43:13.580Z,94.54
2022-11-05T04:45:43.829Z,94.51
2022-11-05T04:48:14.491Z,94.38
2022-11-05T04:50:42.625Z,94.11
2022-11-05T04:53:13.310Z,94.38
2022-11-05T04:55:41.751Z,94.56
2022-11-05T04:58:10.537Z,94.50
2022-11-05T05:00:38.982Z,94.49
2022-11-05T05:03:07.245Z,94.58
2022-11-05T05:05:35.672Z,94.27
2022-11-05T05:08:06.911Z,94.59
2022-11-05T05:10:36.196Z,94.21
2022-11-05T05:13:04.340Z,94.48
2022-11-05T05:15:32.766Z,94.41
2022-11-05T05:18:01.315Z,94.59
2022-11-05T05:20:48.086Z,94.66
2022-11-05T05:23:16.253Z,94.57
2022-11-05T05:25:44.386Z,94.77
2022-11-05T05:28:12.769Z,94.83
2022-11-05T05:30:40.853Z,94.61
2022-11-05T05:33:09.378Z,94.90
2022-11-05T05:35:37.869Z,94.59
2022-11-05T05:38:06.308Z,94.93
2022-11-05T05:40:34.371Z,94.62
2022-11-05T05:43:02.550Z,94.91
2022-11-05T05:45:30.798Z,94.93
2022-11-05T05:47:59.165Z,94.98
2022-11-05T05:50:27.741Z,94.82
2022-11-05T05:52:55.838Z,94.72
2022-11-05T05:55:24.070Z,94.75
2022-11-05T05:57:52.381Z,94.95
2022-11-05T06:00:20.846Z,95.08
2022-11-05T06:02:49.057Z,95.28
2022-11-05T06:05:17.236Z,95.13
2022-11-05T06:07:45.708Z,95.42
2022-11-05T06:10:14.233Z,95.50
2022-11-05T06:12:42.366Z,95.19
2022-11-05T06:15:10.681Z,95.38
2022-11-05T06:17:39.057Z,95.47
2022-11-05T06:20:08.913Z,95.55
2022-11-05T06:22:37.156Z,95.82
2022-11-05T06:25:07.212Z,95.78
2022-11-05T06:27:36.956Z,95.81
2022-11-05T06:30:05.701Z,95.80
2022-11-05T06:32:33.855Z,95.89
2022-11-05T06:35:02.198Z,95.72
2022-11-05T06:37:33.563Z,96.09
2022-11-05T06:40:02.012Z,95.90
2022-11-05T06:42:30.206Z,96.16
2022-11-05T06:44:58.456Z,95.99
2022-11-05T06:47:26.891Z,96.34
2022-11-05T06:49:57.166Z,96.44
2022-11-05T06:52:27.298Z,96.24
2022-11-05T06:54:55.702Z,96.63
2022-11-05T06:57:23.913Z,96.60
2022-11-05T06:59:55.813Z,96.74
2022-11-05T07:02:28.429Z,96.84
2022-11-05T07:04:57.050Z,97.07
2022-11-05T07:07:25.246Z,97.25
2022-11-05T07:09:53.567Z,97.23
2022-11-05T07:12:21.874Z,97.58
2022-11-05T07:14:50.293Z,97.57
2022-11-05T07:17:18.811Z,97.85
2022-11-05T07:19:47.315Z,97.64
2022-11-05T07:22:15.523Z,97.94
2022-11-05T07:24:47.208Z,97.98
2022-11-05T07:27:15.556Z,98.22
2022-11-05T07:29:43.987Z,97.80
2022-11-05T07:32:12.143Z,98.23
2022-11-05T07:34:41.095Z,98.01
2022-11-05T07:37:10.089Z,98.04
2022-11-05T07:39:38.538Z,97.93
2022-11-05T07:42:06.812Z,98.30
2022-11-05T07:44:35.298Z,98.26
2022-11-05T07:47:04.426Z,98.26
2022-11-05T07:49:32.806Z,98.14
2022-11-05T07:52:01.167Z,98.31
2022-11-05T07:54:29.677Z,98.25
2022-11-05T07:56:58.249Z,98.21
2022-11-05T07:59:27.274Z,98.54
2022-11-05T08:01:55.864Z,98.63
2022-11-05T08:04:24.724Z,98.87
2022-11-05T08:06:53.018Z,98.79
2022-11-05T08:09:21.278Z,98.88
2022-11-05T08:11:52.920Z,98.73
2022-11-05T08:14:21.394Z,98.78
2022-11-05T08:16:49.619Z,99.05
2022-11-05T08:19:18.015Z,98.75
2022-11-05T08:21:46.363Z,98.64
2022-11-05T08:24:14.643Z,99.04
2022-11-05T08:26:43.200Z,99.05
2022-11-05T08:29:11.503Z,99.09
2022-11-05T08:31:39.918Z,99.26
2022-11-05T08:34:08.112Z,99.15
2022-11-05T08:36:36.385Z,99.02
2022-11-05T08:39:04.554Z,99.41
2022-11-05T08:41:32.846Z,99.00
2022-11-05T08:44:01.209Z,99.17
2022-11-05T08:46:29.415Z,99.19
2022-11-05T08:48:57.586Z,99.40
2022-11-05T08:51:25.799Z,99.36
2022-11-05T08:53:54.108Z,99.53
2022-11-05T08:56:23.466Z,99.53
2022-11-05T08:58:51.863Z,99.46
2022-11-05T09:01:20.390Z,99.29
2022-11-05T09:03:52.173Z,99.49
2022-11-05T09:06:20.622Z,99.24
2022-11-05T09:08:49.254Z,99.29
2022-11-05T09:11:18.372Z,99.39
2022-11-05T09:13:46.705Z,99.45
2022-11-05T09:16:24.841Z,99.38
2022-11-05T09:18:53.372Z,99.50
2022-11-05T09:21:21.783Z,99.26
2022-11-05T09:23:50.546Z,99.53
2022-11-05T09:26:19.410Z,99.52
2022-11-05T09:28:48.414Z,99.75
2022-11-05T09:31:17.235Z,99.76
2022-11-05T09:33:46.211Z,99.65
2022-11-05T09:36:15.172Z,99.72
2022-11-05T09:38:43.407Z,99.82
2022-11-05T09:41:17.447Z,99.81
2022-11-05T09:44:16.924Z,99.74
2022-11-05T09:46:59.607Z,99.73
2022-11-05T09:49:55.039Z,99.86
2022-11-05T09:52:29.615Z,99.85
2022-11-05T09:54:58.692Z,99.90
2022-11-05T09:57:37.315Z,99.92
2022-11-05T10:00:08.623Z,100.00
2022-11-05T10:02:46.431Z,99.97
2022-11-05T10:05:15.147Z,99.87
2022-11-05T10:07:48.131Z,99.99
2022-11-05T10:10:37.844Z,99.82
2022-11-05T10:13:30.422Z,99.73
2022-11-05T10:16:05.028Z,99.92
2022-11-05T10:18:35.807Z,99.90
2022-11-05T10:21:04.805Z,99.94
2022-11-05T10:23:33.818Z,99.99
2022-11-05T10:26:11.192Z,99.97
2022-11-05T10:28:40.745Z,99.96
2022-11-05T10:31:14.555Z,99.95
2022-11-05T10:33:46.561Z,100.00
2022-11-05T10:36:22.841Z,99.96
2022-11-05T10:38:51.724Z,99.97
2022-11-05T10:41:48.493Z,99.94
2022-11-05T10:44:26.971Z,99.95
2022-11-05T10:47:13.815Z,99.89
2022-11-05T10:49:42.948Z,99.93
2022-11-05T10:52:48.279Z,99.93
2022-11-05T10:55:21.934Z,99.89
2022-11-05T10:57:50.432Z,99.92
2022-11-05T11:00:24.911Z,99.93
2022-11-05T11:03:02.151Z,99.70
2022-11-05T11:05:39.290Z,99.49
2022-11-05T11:08:13.888Z,99.23
2022-11-05T11:10:57.385Z,99.23
2022-11-05T11:13:47.579Z,99.32
2022-11-05T11:16:23.375Z,99.25
2022-11-05T11:19:03.433Z,99.19
2022-11-05T11:21:34.027Z,99.07
2022-11-05T11:24:03.853Z,99.16
2022-11-05T11:26:39.563Z,98.99
2022-11-05T11:29:12.922Z,98.91
2022-11-05T11:31:42.074Z,98.84
2022-11-05T11:34:23.852Z,99.07
2022-11-05T11:36:56.935Z,99.01
2022-11-05T11:39:30.560Z,99.02
2022-11-05T11:42:03.750Z,99.21
2022-11-05T11:44:44.834Z,99.15
2022-11-05T11:47:15.794Z,98.96
2022-11-05T11:50:01.027Z,98.94
2022-11-05T11:52:32.038Z,98.73
2022-11-05T11:55:27.798Z,98.65
2022-11-05T11:58:07.123Z,98.58
2022-11-05T12:00:40.780Z,98.61
2022-11-05T12:03:30.521Z,98.70
2022-11-05T12:06:13.834Z,98.60
2022-11-05T12:08:52.801Z,98.46
2022-11-05T12:11:39.308Z,98.35
2022-11-05T12:14:16.591Z,98.41
2022-11-05T12:16:59.986Z,98.33
2022-11-05T12:19:58.949Z,98.42
2022-11-05T12:22:43.799Z,98.38
2022-11-05T12:25:56.878Z,98.43
2022-11-05T12:29:04.642Z,98.31
2022-11-05T12:31:53.631Z,98.40
2022-11-05T12:34:48.183Z,98.40
2022-11-05T12:37:29.827Z,98.35
2022-11-05T12:40:12.311Z,98.23
2022-11-05T12:42:52.236Z,98.25
2022-11-05T12:45:39.879Z,98.18
2022-11-05T12:48:29.213Z,98.15
2022-11-05T12:51:12.264Z,98.05
2022-11-05T12:54:21.367Z,97.89
2022-11-05T12:56:54.384Z,97.73
2022-11-05T12:59:28.560Z,97.73
2022-11-05T13:02:08.206Z,97.61
2022-11-05T13:04:41.197Z,97.75
2022-11-05T13:07:13.886Z,97.55
2022-11-05T13:10:04.386Z,97.68
2022-11-05T13:12:37.375Z,97.63
2022-11-05T13:15:22.114Z,97.54
2022-11-05T13:17:55.925Z,97.38
2022-11-05T13:20:31.610Z,97.24
2022-11-05T13:23:29.052Z,97.32
2022-11-05T13:26:05.120Z,97.32
2022-11-05T13:28:46.981Z,97.20
2022-11-05T13:31:22.007Z,97.19
2022-11-05T13:33:52.769Z,97.31
2022-11-05T13:36:55.917Z,97.44
2022-11-05T13:39:30.363Z,97.21
2022-11-05T13:42:24.900Z,97.37
2022-11-05T13:45:23.335Z,97.30
2022-11-05T13:48:03.395Z,97.46
2022-11-05T13:50:59.436Z,97.53
2022-11-05T13:53:57.470Z,97.48
2022-11-05T13:56:44.369Z,97.59
2022-11-05T13:59:42.314Z,97.47
2022-11-05T14:02:48.215Z,97.42
2022-11-05T14:05:38.731Z,97.51
2022-11-05T14:08:12.873Z,97.36
2022-11-05T14:10:45.049Z,97.48
2022-11-05T14:13:37.679Z,97.32
2022-11-05T14:16:06.270Z,97.29
2022-11-05T14:18:39.355Z,97.34
2022-11-05T14:21:27.652Z,97.11
2022-11-05T14:24:19.371Z,97.11
2022-11-05T14:27:08.583Z,96.86
2022-11-05T14:29:44.564Z,97.21
2022-11-05T14:32:21.115Z,97.11
2022-11-05T14:35:16.974Z,97.10
2022-11-05T14:37:56.502Z,97.25
2022-11-05T14:40:39.794Z,96.92
2022-11-05T14:43:19.281Z,96.93
2022-11-05T14:46:03.557Z,96.74
2022-11-05T14:48:47.466Z,96.82
2022-11-05T14:51:24.613Z,96.88
2022-11-05T14:54:17.309Z,96.76
2022-11-05T14:56:56.726Z,96.93
2022-11-05T14:59:25.643Z,97.02
2022-11-05T15:02:02.155Z,96.71
2022-11-05T15:04:36.312Z,96.60
2022-11-05T15:07:04.871Z,96.54
2022-11-05T15:09:50.077Z,96.58
2022-11-05T15:12:21.322Z,96.36
2022-11-05T15:15:23.186Z,96.51
2022-11-05T15:18:10.193Z,96.44
2022-11-05T15:20:59.568Z,96.57
2022-11-05T15:23:41.709Z,96.45
2022-11-05T15:26:19.167Z,96.30
2022-11-05T15:28:52.782Z,96.27
2022-11-05T15:31:41.618Z,96.11
2022-11-05T15:34:18.357Z,96.37
2022-11-05T15:36:51.488Z,96.45
2022-11-05T15:39:31.549Z,96.44
2022-11-05T15:42:05.358Z,96.31
2022-11-05T15:44:39.396Z,96.45
2022-11-05T15:47:13.596Z,96.67
2022-11-05T15:49:45.746Z,96.65
2022-11-05T15:52:16.278Z,96.54
2022-11-05T15:54:45.406Z,96.43
2022-11-05T15:57:23.435Z,96.42
2022-11-05T15:59:51.988Z,96.49
2022-11-05T16:02:33.742Z,96.41
2022-11-05T16:05:09.742Z,96.51
2022-11-05T16:07:42.650Z,96.60
2022-11-05T16:10:26.672Z,96.37
2022-11-05T16:12:54.783Z,96.45
2022-11-05T16:15:26.092Z,96.42
2022-11-05T16:17:55.873Z,96.47
2022-11-05T16:20:27.023Z,96.46
2022-11-05T16:22:58.430Z,96.47
2022-11-05T16:25:28.866Z,96.44
2022-11-05T16:27:58.609Z,96.30
2022-11-05T16:30:27.535Z,96.22
2022-11-05T16:33:03.925Z,96.40
2022-11-05T16:35:32.257Z,96.48
2022-11-05T16:38:02.614Z,96.76
2022-11-05T16:40:30.824Z,96.46
2022-11-05T16:43:15.612Z,96.63
2022-11-05T16:45:43.882Z,96.70
2022-11-05T16:48:13.772Z,96.58
2022-11-05T16:50:42.413Z,96.49
2022-11-05T16:53:10.597Z,96.58
2022-11-05T16:55:42.025Z,96.37
2022-11-05T16:58:24.332Z,96.49
2022-11-05T17:00:59.475Z,96.58
2022-11-05T17:03:27.634Z,96.61
2022-11-05T17:05:55.992Z,96.65
2022-11-05T17:08:24.201Z,96.74
2022-11-05T17:10:52.459Z,96.71
2022-11-05T17:13:20.825Z,96.81
2022-11-05T17:15:50.720Z,96.85
2022-11-05T17:18:19.670Z,96.86
2022-11-05T17:20:53.461Z,96.71
2022-11-05T17:23:24.286Z,96.83
2022-11-05T17:26:07.981Z,96.81
2022-11-05T17:28:37.948Z,96.90
2022-11-05T17:31:09.283Z,96.98
2022-11-05T17:33:37.449Z,96.90
2022-11-05T17:36:11.390Z,96.77
2022-11-05T17:38:40.116Z,96.91
2022-11-05T17:41:17.349Z,96.98
2022-11-05T17:43:45.877Z,97.11
2022-11-05T17:46:16.434Z,97.02
2022-11-05T17:48:45.049Z,97.25
2022-11-05T17:51:15.796Z,97.26
2022-11-05T17:53:45.100Z,97.13
2022-11-05T17:56:22.140Z,97.30
2022-11-05T17:58:55.655Z,97.42
2022-11-05T18:01:29.549Z,97.45
2022-11-05T18:04:01.310Z,97.59
2022-11-05T18:06:32.320Z,97.46
2022-11-05T18:09:00.577Z,97.53
2022-11-05T18:11:28.765Z,97.52
2022-11-05T18:13:56.994Z,97.47
2022-11-05T18:16:25.381Z,97.61
2022-11-05T18:18:53.554Z,97.53
2022-11-05T18:21:21.731Z,97.75
2022-11-05T18:23:49.952Z,97.59
2022-11-05T18:26:19.251Z,97.63
2022-11-05T18:28:47.455Z,97.80
2022-11-05T18:31:20.723Z,97.68
2022-11-05T18:33:50.305Z,97.52
2022-11-05T18:36:23.838Z,97.54
2022-11-05T18:38:52.430Z,97.50
2022-11-05T18:41:21.541Z,97.51
2022-11-05T18:43:49.682Z,97.45
2022-11-05T18:46:43.187Z,97.69
2022-11-05T18:49:07.334Z,97.53
2022-11-05T18:51:35.530Z,97.44
2022-11-05T18:54:04.098Z,97.45
2022-11-05T18:56:32.732Z,97.40
2022-11-05T18:59:30.164Z,97.19
2022-11-05T19:01:49.284Z,97.15
2022-11-05T19:04:17.557Z,97.19
2022-11-05T19:06:45.787Z,97.32
2022-11-05T19:09:14.955Z,97.30
2022-11-05T19:11:43.353Z,97.22
2022-11-05T19:14:12.557Z,97.07
2022-11-05T19:16:44.190Z,97.13
2022-11-05T19:19:12.571Z,97.38
2022-11-05T19:21:41.082Z,97.27
2022-11-05T19:24:10.284Z,97.01
2022-11-05T19:26:38.496Z,96.97
2022-11-05T19:29:07.176Z,97.04
2022-11-05T19:31:35.476Z,97.03
2022-11-05T19:34:05.558Z,97.20
2022-11-05T19:36:34.468Z,97.09
2022-11-05T19:39:06.501Z,97.24
2022-11-05T19:41:35.209Z,97.19
2022-11-05T19:44:04.848Z,97.09
2022-11-05T19:46:33.818Z,96.93
2022-11-05T19:49:02.338Z,97.18
2022-11-05T19:51:32.269Z,97.17
2022-11-05T19:54:01.887Z,97.13
2022-11-05T19:56:32.791Z,97.10
2022-11-05T19:59:03.407Z,97.04
2022-11-05T20:01:32.227Z,97.05
2022-11-05T20:04:08.661Z,97.16
2022-11-05T20:06:38.984Z,97.19
2022-11-05T20:09:27.490Z,96.73
2022-11-05T20:11:58.901Z,96.93
2022-11-05T20:14:27.765Z,96.81
2022-11-05T20:16:55.964Z,96.90
2022-11-05T20:19:24.389Z,97.27
2022-11-05T20:21:52.683Z,97.39
2022-11-05T20:24:25.272Z,97.28
2022-11-05T20:26:55.076Z,97.23
2022-11-05T20:29:26.027Z,97.14
2022-11-05T20:31:57.954Z,97.06
2022-11-05T20:34:26.052Z,96.98
2022-11-05T20:36:54.210Z,96.79
2022-11-05T20:39:22.494Z,96.94
2022-11-05T20:41:50.683Z,97.06
2022-11-05T20:44:20.123Z,96.95
2022-11-05T20:46:48.619Z,97.10
2022-11-05T20:49:21.259Z,96.94
2022-11-05T20:51:52.420Z,96.64
2022-11-05T20:54:20.655Z,96.90
2022-11-05T20:56:48.906Z,96.62
2022-11-05T20:59:17.273Z,96.91
2022-11-05T21:01:45.795Z,97.01
2022-11-05T21:04:14.166Z,96.39
2022-11-05T21:06:42.304Z,96.55
2022-11-05T21:09:10.415Z,96.67
2022-11-05T21:11:57.979Z,96.37
2022-11-05T21:14:26.115Z,96.73
2022-11-05T21:16:54.326Z,96.29
2022-11-05T21:19:24.141Z,96.72
2022-11-05T21:21:52.433Z,96.29
2022-11-05T21:24:20.857Z,96.38
2022-11-05T21:26:52.176Z,96.06
2022-11-05T21:29:20.759Z,96.16
2022-11-05T21:31:49.109Z,96.60
2022-11-05T21:34:19.059Z,96.18
2022-11-05T21:36:47.434Z,95.91
2022-11-05T21:39:15.720Z,96.18
2022-11-05T21:41:43.953Z,96.28
2022-11-05T21:44:12.276Z,95.92
2022-11-05T21:46:40.587Z,95.80
2022-11-05T21:49:09.492Z,95.81
2022-11-05T21:51:56.047Z,96.03
2022-11-05T21:54:43.166Z,95.87
2022-11-05T21:57:36.224Z,95.99
2022-11-05T22:00:08.331Z,96.46
2022-11-05T22:02:37.340Z,95.68
2022-11-05T22:05:06.522Z,95.73
2022-11-05T22:07:38.068Z,95.96
2022-11-05T22:10:14.666Z,95.83
2022-11-05T22:12:45.284Z,95.75
2022-11-05T22:15:14.132Z,95.57
2022-11-05T22:17:46.441Z,95.53
2022-11-05T22:20:16.195Z,95.41
2022-11-05T22:22:45.395Z,95.57
2022-11-05T22:25:14.470Z,95.99
2022-11-05T22:27:44.078Z,95.88
2022-11-05T22:30:13.976Z,95.78
2022-11-05T22:32:42.170Z,95.60
2022-11-05T22:35:10.736Z,95.77
2022-11-05T22:37:38.949Z,95.63
2022-11-05T22:40:07.796Z,95.61
2022-11-05T22:42:36.206Z,95.80
2022-11-05T22:45:04.702Z,96.12
2022-11-05T22:47:32.940Z,95.63
2022-11-05T22:50:01.558Z,94.88
2022-11-05T22:52:29.861Z,95.64
2022-11-05T22:54:58.223Z,95.93
2022-11-05T22:57:26.404Z,96.50
2022-11-05T22:59:54.499Z,96.49
2022-11-05T23:02:22.794Z,96.57
2022-11-05T23:04:53.891Z,96.63
2022-11-05T23:07:40.782Z,96.84
2022-11-05T23:10:28.208Z,96.51
2022-11-05T23:12:56.583Z,96.82
2022-11-05T23:15:43.767Z,97.03
2022-11-05T23:18:30.604Z,96.97
2022-11-05T23:21:22.688Z,97.28
2022-11-05T23:24:06.541Z,97.28
2022-11-05T23:26:51.788Z,97.45
2022-11-05T23:29:22.619Z,97.72
2022-11-05T23:32:10.271Z,97.43
2022-11-05T23:34:39.173Z,97.28
2022-11-05T23:37:26.105Z,97.26
2022-11-05T23:39:54.874Z,97.07
2022-11-05T23:42:42.673Z,97.17
2022-11-05T23:45:29.965Z,97.02
2022-11-05T23:48:16.566Z,96.98
2022-11-05T23:51:06.344Z,96.74
2022-11-05T23:53:37.994Z,96.96
2022-11-05T23:56:10.014Z,97.21
2022-11-05T23:58:39.636Z,97.13
